Saturday, October 20, 2018, 7:08 AM EDT
Back to Local

KHIE, Mt Washington Regional Airport

Location: Jefferson, NH, United States Lat: 44.367
Local Time: 7:08 AM EDT (11:08 GMT) Lon: -71.55
Time Zone: US/Eastern Elev: 1072 ft

Show me the last for .
Show Decoded

2018-10-20 06:52 METAR KHIE 201052Z AUTO 23005KT 10SM OVC042 11/03 A2954 RMK AO2 SLP006 T01060028
                 =
2018-10-20 05:52 METAR KHIE 200952Z AUTO 20003KT 10SM OVC046 11/01 A2955 RMK AO2 SLP007 T01110011
                 =
2018-10-20 04:52 METAR KHIE 200852Z AUTO 20009G14KT 160V220 10SM OVC060 12/00 A2956 RMK AO2
                 SLP010 T01170000 56030 =
2018-10-20 03:52 METAR KHIE 200752Z AUTO VRB03KT 10SM BKN070 OVC095 12/M01 A2959 RMK AO2 SLP020
                 T01171011 =
2018-10-20 02:52 METAR KHIE 200652Z AUTO VRB04KT 10SM OVC100 12/M02 A2961 RMK AO2 SLP029
                 T01171017 =
2018-10-20 01:52 METAR KHIE 200552Z AUTO 21007KT 10SM OVC100 12/M01 A2965 RMK AO2 SLP042
                 T01221011 10122 20067 58028 =
2018-10-20 00:52 METAR KHIE 200452Z AUTO 00000KT 10SM BKN110 07/04 A2965 RMK AO2 SLP046 T00720044
                 401501011 =
2018-10-19 23:52 METAR KHIE 200352Z AUTO 00000KT 10SM CLR 07/04 A2973 RMK AO2 SLP072 T00670044 =
2018-10-19 22:52 METAR KHIE 200252Z AUTO 00000KT 10SM CLR 09/04 A2973 RMK AO2 SLP073 T00890039
                 58031 =
2018-10-19 21:52 METAR KHIE 200152Z AUTO 00000KT 10SM CLR 07/04 A2977 RMK AO2 SLP088 T00670039 =
2018-10-19 20:52 METAR KHIE 200052Z AUTO 00000KT 10SM CLR 07/04 A2980 RMK AO2 SLP101 T00670039 =
2018-10-19 19:52 METAR KHIE 192352Z AUTO 00000KT 10SM CLR 08/04 A2982 RMK AO2 SLP109 T00780039
                 10150 20078 58015 =
2018-10-19 18:52 METAR KHIE 192252Z AUTO 00000KT 10SM CLR 11/03 A2986 RMK AO2 SLP120 T01060028 =
2018-10-19 17:52 METAR KHIE 192152Z AUTO 00000KT 10SM CLR 13/03 A2988 RMK AO2 SLP124 T01280028 =
2018-10-19 16:52 METAR KHIE 192052Z AUTO 25008KT 10SM CLR 14/03 A2987 RMK AO2 SLP122 T01440028
                 56020 =
2018-10-19 15:52 METAR KHIE 191952Z AUTO 26006KT 10SM CLR 14/02 A2989 RMK AO2 SLP130 T01440022 =
2018-10-19 14:52 METAR KHIE 191852Z AUTO 27007KT 240V310 10SM CLR 14/02 A2990 RMK AO2 SLP133
                 T01390022 =
2018-10-19 13:52 METAR KHIE 191752Z AUTO 23006KT 10SM CLR 13/02 A2993 RMK AO2 SLP142 T01330022
                 10133 20000 56038 =
2018-10-19 12:52 METAR KHIE 191652Z AUTO 24008KT 10SM CLR 12/01 A2996 RMK AO2 SLP153 T01170006 =
2018-10-19 11:52 METAR KHIE 191552Z AUTO VRB05KT 10SM CLR 11/01 A3001 RMK AO2 SLP172 T01060011 =
2018-10-19 10:52 METAR KHIE 191452Z AUTO 23008KT 10SM CLR 08/00 A3005 RMK AO2 SLP186 T00830000
                 58018 =
2018-10-19 09:52 METAR KHIE 191352Z AUTO VRB05KT 10SM CLR 07/M01 A3006 RMK AO2 SLP190 T00721006 =
2018-10-19 08:52 METAR KHIE 191252Z AUTO 30003KT 10SM CLR 04/M02 A3009 RMK AO2 SLP203 T00391017 =
2018-10-19 07:52 METAR KHIE 191152Z AUTO 30004KT 10SM CLR 00/M03 A3010 RMK AO2 SLP208 T00001033
                 10017 20000 55003 =

Support USWX by starting your Amazon purchase here.